sensor_id;sensor_type;location;lat;lon;timestamp;P1;durP1;ratioP1;P2;durP2;ratioP2
6376;SDS011;3221;48.858;10.128;2023-01-28T00:01:37;18.30;;;11.80;;
6376;SDS011;3221;48.858;10.128;2023-01-28T00:04:04;16.73;;;11.17;;
6376;SDS011;3221;48.858;10.128;2023-01-28T00:06:31;16.37;;;10.73;;
6376;SDS011;3221;48.858;10.128;2023-01-28T00:08:58;17.60;;;11.60;;
6376;SDS011;3221;48.858;10.128;2023-01-28T00:11:29;17.23;;;11.40;;
6376;SDS011;3221;48.858;10.128;2023-01-28T00:13:55;15.80;;;10.47;;
6376;SDS011;3221;48.858;10.128;2023-01-28T00:16:22;15.87;;;11.10;;
6376;SDS011;3221;48.858;10.128;2023-01-28T00:18:49;17.30;;;10.67;;
6376;SDS011;3221;48.858;10.128;2023-01-28T00:21:17;16.37;;;10.07;;
6376;SDS011;3221;48.858;10.128;2023-01-28T00:23:46;16.53;;;11.33;;
6376;SDS011;3221;48.858;10.128;2023-01-28T00:26:19;15.13;;;9.97;;
6376;SDS011;3221;48.858;10.128;2023-01-28T00:28:47;17.83;;;10.97;;
6376;SDS011;3221;48.858;10.128;2023-01-28T00:31:18;15.17;;;9.80;;
6376;SDS011;3221;48.858;10.128;2023-01-28T00:33:47;15.73;;;10.37;;
6376;SDS011;3221;48.858;10.128;2023-01-28T00:36:16;14.23;;;9.97;;
6376;SDS011;3221;48.858;10.128;2023-01-28T00:38:48;14.90;;;10.37;;
6376;SDS011;3221;48.858;10.128;2023-01-28T00:41:19;16.97;;;10.60;;
6376;SDS011;3221;48.858;10.128;2023-01-28T00:43:49;15.60;;;10.50;;
6376;SDS011;3221;48.858;10.128;2023-01-28T00:46:16;15.00;;;10.33;;
6376;SDS011;3221;48.858;10.128;2023-01-28T00:48:44;13.90;;;9.93;;
6376;SDS011;3221;48.858;10.128;2023-01-28T00:51:12;13.73;;;9.47;;
6376;SDS011;3221;48.858;10.128;2023-01-28T00:53:40;14.43;;;10.13;;
6376;SDS011;3221;48.858;10.128;2023-01-28T00:56:10;15.27;;;10.07;;
6376;SDS011;3221;48.858;10.128;2023-01-28T00:58:39;14.20;;;9.80;;
6376;SDS011;3221;48.858;10.128;2023-01-28T01:01:07;15.37;;;10.37;;
6376;SDS011;3221;48.858;10.128;2023-01-28T01:03:49;13.40;;;9.37;;
6376;SDS011;3221;48.858;10.128;2023-01-28T01:06:29;14.70;;;10.10;;
6376;SDS011;3221;48.858;10.128;2023-01-28T01:09:05;14.23;;;9.80;;
6376;SDS011;3221;48.858;10.128;2023-01-28T01:11:35;14.63;;;9.93;;
6376;SDS011;3221;48.858;10.128;2023-01-28T01:14:02;14.13;;;9.77;;
6376;SDS011;3221;48.858;10.128;2023-01-28T01:16:31;14.43;;;9.67;;
6376;SDS011;3221;48.858;10.128;2023-01-28T01:18:58;14.53;;;10.13;;
6376;SDS011;3221;48.858;10.128;2023-01-28T01:21:27;14.67;;;9.80;;
6376;SDS011;3221;48.858;10.128;2023-01-28T01:23:54;15.40;;;10.00;;
6376;SDS011;3221;48.858;10.128;2023-01-28T01:26:22;13.87;;;10.37;;
6376;SDS011;3221;48.858;10.128;2023-01-28T01:28:50;15.07;;;10.00;;
6376;SDS011;3221;48.858;10.128;2023-01-28T01:31:18;14.77;;;9.67;;
6376;SDS011;3221;48.858;10.128;2023-01-28T01:33:47;14.37;;;10.10;;
6376;SDS011;3221;48.858;10.128;2023-01-28T01:36:15;13.93;;;9.47;;
6376;SDS011;3221;48.858;10.128;2023-01-28T01:38:43;13.83;;;9.63;;
6376;SDS011;3221;48.858;10.128;2023-01-28T01:41:27;13.83;;;9.67;;
6376;SDS011;3221;48.858;10.128;2023-01-28T01:43:59;13.53;;;9.37;;
6376;SDS011;3221;48.858;10.128;2023-01-28T01:49:19;14.50;;;9.07;;
6376;SDS011;3221;48.858;10.128;2023-01-28T01:51:55;11.97;;;8.93;;
6376;SDS011;3221;48.858;10.128;2023-01-28T01:54:28;14.23;;;9.77;;
6376;SDS011;3221;48.858;10.128;2023-01-28T01:56:59;14.77;;;9.80;;
6376;SDS011;3221;48.858;10.128;2023-01-28T01:59:29;14.80;;;10.20;;
6376;SDS011;3221;48.858;10.128;2023-01-28T02:02:02;13.40;;;9.43;;
6376;SDS011;3221;48.858;10.128;2023-01-28T02:04:40;12.83;;;9.60;;
6376;SDS011;3221;48.858;10.128;2023-01-28T02:07:14;13.20;;;9.37;;
6376;SDS011;3221;48.858;10.128;2023-01-28T02:09:43;15.87;;;9.40;;
6376;SDS011;3221;48.858;10.128;2023-01-28T02:12:11;14.17;;;9.53;;
6376;SDS011;3221;48.858;10.128;2023-01-28T02:15:24;13.77;;;9.50;;
6376;SDS011;3221;48.858;10.128;2023-01-28T02:17:34;12.27;;;8.83;;
6376;SDS011;3221;48.858;10.128;2023-01-28T02:20:07;15.17;;;9.40;;
6376;SDS011;3221;48.858;10.128;2023-01-28T02:28:08;12.37;;;8.97;;
6376;SDS011;3221;48.858;10.128;2023-01-28T02:30:53;16.37;;;9.83;;
6376;SDS011;3221;48.858;10.128;2023-01-28T02:34:29;13.37;;;9.53;;
6376;SDS011;3221;48.858;10.128;2023-01-28T02:39:23;13.93;;;9.63;;
6376;SDS011;3221;48.858;10.128;2023-01-28T02:44:34;12.93;;;9.03;;
6376;SDS011;3221;48.858;10.128;2023-01-28T02:47:01;13.30;;;9.10;;
6376;SDS011;3221;48.858;10.128;2023-01-28T02:52:17;11.73;;;9.03;;
6376;SDS011;3221;48.858;10.128;2023-01-28T02:55:37;14.83;;;9.23;;
6376;SDS011;3221;48.858;10.128;2023-01-28T02:58:25;13.80;;;9.40;;
6376;SDS011;3221;48.858;10.128;2023-01-28T03:06:48;13.23;;;9.50;;
6376;SDS011;3221;48.858;10.128;2023-01-28T03:09:20;12.47;;;9.03;;
6376;SDS011;3221;48.858;10.128;2023-01-28T03:11:49;12.70;;;9.73;;
6376;SDS011;3221;48.858;10.128;2023-01-28T03:14:36;15.00;;;10.10;;
6376;SDS011;3221;48.858;10.128;2023-01-28T03:17:25;13.57;;;9.63;;
6376;SDS011;3221;48.858;10.128;2023-01-28T03:20:17;13.63;;;9.23;;
6376;SDS011;3221;48.858;10.128;2023-01-28T03:23:08;12.00;;;9.07;;
6376;SDS011;3221;48.858;10.128;2023-01-28T03:26:00;14.60;;;10.33;;
6376;SDS011;3221;48.858;10.128;2023-01-28T03:28:47;13.27;;;9.07;;
6376;SDS011;3221;48.858;10.128;2023-01-28T03:31:34;12.80;;;8.80;;
6376;SDS011;3221;48.858;10.128;2023-01-28T03:34:21;12.37;;;8.63;;
6376;SDS011;3221;48.858;10.128;2023-01-28T03:37:07;13.20;;;9.90;;
6376;SDS011;3221;48.858;10.128;2023-01-28T03:39:35;12.40;;;9.00;;
6376;SDS011;3221;48.858;10.128;2023-01-28T03:44:36;14.80;;;10.03;;
6376;SDS011;3221;48.858;10.128;2023-01-28T03:47:20;13.50;;;9.63;;
6376;SDS011;3221;48.858;10.128;2023-01-28T03:49:52;13.83;;;9.53;;
6376;SDS011;3221;48.858;10.128;2023-01-28T03:52:22;15.73;;;10.53;;
6376;SDS011;3221;48.858;10.128;2023-01-28T03:54:58;12.80;;;9.60;;
6376;SDS011;3221;48.858;10.128;2023-01-28T03:57:26;14.53;;;10.13;;
6376;SDS011;3221;48.858;10.128;2023-01-28T03:59:56;13.70;;;9.77;;
6376;SDS011;3221;48.858;10.128;2023-01-28T04:02:23;14.23;;;9.93;;
6376;SDS011;3221;48.858;10.128;2023-01-28T04:04:52;13.67;;;9.67;;
6376;SDS011;3221;48.858;10.128;2023-01-28T04:07:19;13.17;;;9.67;;
6376;SDS011;3221;48.858;10.128;2023-01-28T04:10:09;21.23;;;12.83;;
6376;SDS011;3221;48.858;10.128;2023-01-28T04:12:48;17.10;;;10.87;;
6376;SDS011;3221;48.858;10.128;2023-01-28T04:15:17;15.47;;;10.60;;
6376;SDS011;3221;48.858;10.128;2023-01-28T04:17:47;14.60;;;10.20;;
6376;SDS011;3221;48.858;10.128;2023-01-28T04:20:21;13.50;;;9.57;;
6376;SDS011;3221;48.858;10.128;2023-01-28T04:22:48;13.57;;;9.47;;
6376;SDS011;3221;48.858;10.128;2023-01-28T04:25:15;12.40;;;9.13;;
6376;SDS011;3221;48.858;10.128;2023-01-28T04:27:42;12.57;;;9.20;;
6376;SDS011;3221;48.858;10.128;2023-01-28T04:30:19;12.10;;;8.87;;
6376;SDS011;3221;48.858;10.128;2023-01-28T04:33:12;11.70;;;8.50;;
6376;SDS011;3221;48.858;10.128;2023-01-28T04:36:18;11.47;;;8.67;;
6376;SDS011;3221;48.858;10.128;2023-01-28T04:39:04;11.97;;;8.67;;
6376;SDS011;3221;48.858;10.128;2023-01-28T04:41:43;11.87;;;8.60;;
6376;SDS011;3221;48.858;10.128;2023-01-28T04:44:19;11.93;;;8.37;;
6376;SDS011;3221;48.858;10.128;2023-01-28T04:47:14;12.50;;;8.73;;
6376;SDS011;3221;48.858;10.128;2023-01-28T04:50:03;12.27;;;8.10;;
6376;SDS011;3221;48.858;10.128;2023-01-28T04:52:36;10.87;;;8.27;;
6376;SDS011;3221;48.858;10.128;2023-01-28T04:55:26;12.43;;;8.90;;
6376;SDS011;3221;48.858;10.128;2023-01-28T04:57:53;9.73;;;7.97;;
6376;SDS011;3221;48.858;10.128;2023-01-28T05:00:20;13.77;;;8.23;;
6376;SDS011;3221;48.858;10.128;2023-01-28T05:02:47;12.83;;;8.60;;
6376;SDS011;3221;48.858;10.128;2023-01-28T05:05:14;12.43;;;8.13;;
6376;SDS011;3221;48.858;10.128;2023-01-28T05:07:53;12.00;;;8.40;;
6376;SDS011;3221;48.858;10.128;2023-01-28T05:10:21;11.77;;;8.53;;
6376;SDS011;3221;48.858;10.128;2023-01-28T05:12:49;11.37;;;8.20;;
6376;SDS011;3221;48.858;10.128;2023-01-28T05:15:17;12.30;;;8.20;;
6376;SDS011;3221;48.858;10.128;2023-01-28T05:17:46;11.30;;;8.57;;
6376;SDS011;3221;48.858;10.128;2023-01-28T05:20:15;12.30;;;8.67;;
6376;SDS011;3221;48.858;10.128;2023-01-28T05:22:45;12.67;;;8.80;;
6376;SDS011;3221;48.858;10.128;2023-01-28T05:25:18;11.80;;;8.90;;
6376;SDS011;3221;48.858;10.128;2023-01-28T05:27:49;12.43;;;8.67;;
6376;SDS011;3221;48.858;10.128;2023-01-28T05:30:17;10.93;;;8.13;;
6376;SDS011;3221;48.858;10.128;2023-01-28T05:32:45;12.07;;;8.50;;
6376;SDS011;3221;48.858;10.128;2023-01-28T05:35:14;11.97;;;8.37;;
6376;SDS011;3221;48.858;10.128;2023-01-28T05:37:42;12.30;;;8.87;;
6376;SDS011;3221;48.858;10.128;2023-01-28T05:40:10;11.60;;;8.67;;
6376;SDS011;3221;48.858;10.128;2023-01-28T05:42:37;11.63;;;7.93;;
6376;SDS011;3221;48.858;10.128;2023-01-28T05:45:34;11.33;;;8.40;;
6376;SDS011;3221;48.858;10.128;2023-01-28T05:48:08;12.20;;;8.63;;
6376;SDS011;3221;48.858;10.128;2023-01-28T05:51:02;14.10;;;8.80;;
6376;SDS011;3221;48.858;10.128;2023-01-28T05:53:33;13.00;;;9.40;;
6376;SDS011;3221;48.858;10.128;2023-01-28T05:56:00;12.67;;;8.93;;
6376;SDS011;3221;48.858;10.128;2023-01-28T05:58:29;11.87;;;8.60;;
6376;SDS011;3221;48.858;10.128;2023-01-28T06:01:00;12.53;;;8.90;;
6376;SDS011;3221;48.858;10.128;2023-01-28T06:03:35;16.57;;;10.37;;
6376;SDS011;3221;48.858;10.128;2023-01-28T06:06:02;11.67;;;8.93;;
6376;SDS011;3221;48.858;10.128;2023-01-28T06:08:30;12.60;;;9.27;;
6376;SDS011;3221;48.858;10.128;2023-01-28T06:10:57;13.83;;;9.63;;
6376;SDS011;3221;48.858;10.128;2023-01-28T06:13:25;13.50;;;9.73;;
6376;SDS011;3221;48.858;10.128;2023-01-28T06:16:23;13.47;;;9.90;;
6376;SDS011;3221;48.858;10.128;2023-01-28T06:18:58;13.43;;;9.30;;
6376;SDS011;3221;48.858;10.128;2023-01-28T06:21:25;12.00;;;8.27;;
6376;SDS011;3221;48.858;10.128;2023-01-28T06:23:56;12.23;;;8.70;;
6376;SDS011;3221;48.858;10.128;2023-01-28T06:26:23;12.93;;;8.87;;
6376;SDS011;3221;48.858;10.128;2023-01-28T06:28:50;14.13;;;9.30;;
6376;SDS011;3221;48.858;10.128;2023-01-28T06:31:16;13.07;;;9.10;;
6376;SDS011;3221;48.858;10.128;2023-01-28T06:33:44;12.43;;;8.77;;
6376;SDS011;3221;48.858;10.128;2023-01-28T06:36:11;13.13;;;9.33;;
6376;SDS011;3221;48.858;10.128;2023-01-28T06:38:38;15.47;;;9.87;;
6376;SDS011;3221;48.858;10.128;2023-01-28T06:41:04;13.07;;;9.60;;
6376;SDS011;3221;48.858;10.128;2023-01-28T06:43:32;13.97;;;9.90;;
6376;SDS011;3221;48.858;10.128;2023-01-28T06:45:58;13.87;;;9.53;;
6376;SDS011;3221;48.858;10.128;2023-01-28T06:48:26;14.33;;;9.60;;
6376;SDS011;3221;48.858;10.128;2023-01-28T06:50:53;15.07;;;10.30;;
6376;SDS011;3221;48.858;10.128;2023-01-28T06:53:20;13.57;;;9.73;;
6376;SDS011;3221;48.858;10.128;2023-01-28T06:55:47;14.43;;;9.93;;
6376;SDS011;3221;48.858;10.128;2023-01-28T06:58:14;14.43;;;10.27;;
6376;SDS011;3221;48.858;10.128;2023-01-28T07:00:41;12.67;;;9.43;;
6376;SDS011;3221;48.858;10.128;2023-01-28T07:03:07;16.97;;;10.90;;
6376;SDS011;3221;48.858;10.128;2023-01-28T07:05:34;15.63;;;10.50;;
6376;SDS011;3221;48.858;10.128;2023-01-28T07:08:01;14.93;;;9.83;;
6376;SDS011;3221;48.858;10.128;2023-01-28T07:10:28;15.40;;;10.23;;
6376;SDS011;3221;48.858;10.128;2023-01-28T07:12:55;14.63;;;10.07;;
6376;SDS011;3221;48.858;10.128;2023-01-28T07:15:22;14.67;;;10.30;;
6376;SDS011;3221;48.858;10.128;2023-01-28T07:17:49;14.87;;;10.70;;
6376;SDS011;3221;48.858;10.128;2023-01-28T07:20:15;14.90;;;10.53;;
6376;SDS011;3221;48.858;10.128;2023-01-28T07:22:43;16.97;;;11.23;;
6376;SDS011;3221;48.858;10.128;2023-01-28T07:25:11;17.40;;;11.13;;
6376;SDS011;3221;48.858;10.128;2023-01-28T07:27:39;15.67;;;10.67;;
6376;SDS011;3221;48.858;10.128;2023-01-28T07:30:12;16.03;;;11.13;;
6376;SDS011;3221;48.858;10.128;2023-01-28T07:32:40;16.23;;;10.90;;
6376;SDS011;3221;48.858;10.128;2023-01-28T07:35:07;15.80;;;10.73;;
6376;SDS011;3221;48.858;10.128;2023-01-28T07:37:34;15.30;;;10.53;;
6376;SDS011;3221;48.858;10.128;2023-01-28T07:40:00;14.70;;;10.40;;
6376;SDS011;3221;48.858;10.128;2023-01-28T07:42:27;16.70;;;11.20;;
6376;SDS011;3221;48.858;10.128;2023-01-28T07:44:54;15.93;;;10.63;;
6376;SDS011;3221;48.858;10.128;2023-01-28T07:47:21;15.80;;;10.80;;
6376;SDS011;3221;48.858;10.128;2023-01-28T07:49:48;15.57;;;10.47;;
6376;SDS011;3221;48.858;10.128;2023-01-28T07:52:14;14.40;;;10.23;;
6376;SDS011;3221;48.858;10.128;2023-01-28T07:54:41;16.37;;;11.27;;
6376;SDS011;3221;48.858;10.128;2023-01-28T07:57:08;15.30;;;10.60;;
6376;SDS011;3221;48.858;10.128;2023-01-28T07:59:35;15.47;;;10.17;;
6376;SDS011;3221;48.858;10.128;2023-01-28T08:02:02;18.07;;;11.60;;
6376;SDS011;3221;48.858;10.128;2023-01-28T08:04:29;17.97;;;12.33;;
6376;SDS011;3221;48.858;10.128;2023-01-28T08:06:56;18.17;;;11.67;;
6376;SDS011;3221;48.858;10.128;2023-01-28T08:09:23;20.13;;;12.80;;
6376;SDS011;3221;48.858;10.128;2023-01-28T08:11:49;19.43;;;12.83;;
6376;SDS011;3221;48.858;10.128;2023-01-28T08:14:16;18.77;;;12.90;;
6376;SDS011;3221;48.858;10.128;2023-01-28T08:16:43;20.37;;;12.80;;
6376;SDS011;3221;48.858;10.128;2023-01-28T08:19:10;24.37;;;15.90;;
6376;SDS011;3221;48.858;10.128;2023-01-28T08:21:37;23.33;;;15.47;;
6376;SDS011;3221;48.858;10.128;2023-01-28T08:24:03;21.47;;;14.13;;
6376;SDS011;3221;48.858;10.128;2023-01-28T08:26:31;24.03;;;15.57;;
6376;SDS011;3221;48.858;10.128;2023-01-28T08:28:57;26.70;;;16.03;;
6376;SDS011;3221;48.858;10.128;2023-01-28T08:31:24;23.70;;;14.67;;
6376;SDS011;3221;48.858;10.128;2023-01-28T08:33:52;30.67;;;18.67;;
6376;SDS011;3221;48.858;10.128;2023-01-28T08:36:19;25.63;;;15.87;;
6376;SDS011;3221;48.858;10.128;2023-01-28T08:38:46;26.50;;;16.57;;
6376;SDS011;3221;48.858;10.128;2023-01-28T08:41:20;26.00;;;15.90;;
6376;SDS011;3221;48.858;10.128;2023-01-28T08:43:47;25.70;;;16.40;;
6376;SDS011;3221;48.858;10.128;2023-01-28T08:46:14;24.33;;;15.50;;
6376;SDS011;3221;48.858;10.128;2023-01-28T08:48:41;22.07;;;14.30;;
6376;SDS011;3221;48.858;10.128;2023-01-28T08:51:09;23.73;;;14.97;;
6376;SDS011;3221;48.858;10.128;2023-01-28T08:53:36;23.97;;;15.57;;
6376;SDS011;3221;48.858;10.128;2023-01-28T08:56:03;21.37;;;13.80;;
6376;SDS011;3221;48.858;10.128;2023-01-28T08:58:30;24.13;;;15.17;;
6376;SDS011;3221;48.858;10.128;2023-01-28T09:00:56;21.00;;;14.13;;
6376;SDS011;3221;48.858;10.128;2023-01-28T09:03:23;22.30;;;13.70;;
6376;SDS011;3221;48.858;10.128;2023-01-28T09:05:50;20.83;;;13.67;;
6376;SDS011;3221;48.858;10.128;2023-01-28T09:08:21;21.90;;;14.50;;
6376;SDS011;3221;48.858;10.128;2023-01-28T09:10:53;21.33;;;14.00;;
6376;SDS011;3221;48.858;10.128;2023-01-28T09:13:22;21.13;;;14.17;;
6376;SDS011;3221;48.858;10.128;2023-01-28T09:15:49;21.83;;;14.30;;
6376;SDS011;3221;48.858;10.128;2023-01-28T09:18:16;22.10;;;14.67;;
6376;SDS011;3221;48.858;10.128;2023-01-28T09:20:44;21.87;;;14.30;;
6376;SDS011;3221;48.858;10.128;2023-01-28T09:23:11;20.43;;;13.50;;
6376;SDS011;3221;48.858;10.128;2023-01-28T09:25:38;20.47;;;13.67;;
6376;SDS011;3221;48.858;10.128;2023-01-28T09:28:05;20.60;;;13.50;;
6376;SDS011;3221;48.858;10.128;2023-01-28T09:30:33;22.57;;;13.53;;
6376;SDS011;3221;48.858;10.128;2023-01-28T09:33:02;23.93;;;15.00;;
6376;SDS011;3221;48.858;10.128;2023-01-28T09:35:29;24.87;;;16.13;;
6376;SDS011;3221;48.858;10.128;2023-01-28T09:37:56;25.10;;;15.33;;
6376;SDS011;3221;48.858;10.128;2023-01-28T09:40:38;22.80;;;14.57;;
6376;SDS011;3221;48.858;10.128;2023-01-28T09:43:19;22.17;;;14.17;;
6376;SDS011;3221;48.858;10.128;2023-01-28T09:46:12;22.43;;;13.63;;
6376;SDS011;3221;48.858;10.128;2023-01-28T09:48:42;22.27;;;13.93;;
6376;SDS011;3221;48.858;10.128;2023-01-28T09:53:54;22.17;;;13.93;;
6376;SDS011;3221;48.858;10.128;2023-01-28T09:56:25;23.43;;;15.03;;
6376;SDS011;3221;48.858;10.128;2023-01-28T09:59:12;21.57;;;14.13;;
6376;SDS011;3221;48.858;10.128;2023-01-28T10:10:43;23.80;;;14.77;;
6376;SDS011;3221;48.858;10.128;2023-01-28T10:18:50;23.27;;;14.47;;
6376;SDS011;3221;48.858;10.128;2023-01-28T10:21:25;21.17;;;14.40;;
6376;SDS011;3221;48.858;10.128;2023-01-28T10:24:05;21.30;;;14.20;;
6376;SDS011;3221;48.858;10.128;2023-01-28T10:26:39;22.97;;;13.60;;
6376;SDS011;3221;48.858;10.128;2023-01-28T10:31:52;20.23;;;13.43;;
6376;SDS011;3221;48.858;10.128;2023-01-28T10:34:39;21.60;;;12.83;;
6376;SDS011;3221;48.858;10.128;2023-01-28T10:37:08;21.00;;;12.53;;
6376;SDS011;3221;48.858;10.128;2023-01-28T10:39:38;19.33;;;12.73;;
6376;SDS011;3221;48.858;10.128;2023-01-28T10:44:56;20.70;;;12.97;;
6376;SDS011;3221;48.858;10.128;2023-01-28T10:47:34;21.27;;;13.40;;
6376;SDS011;3221;48.858;10.128;2023-01-28T10:50:06;20.53;;;13.50;;
6376;SDS011;3221;48.858;10.128;2023-01-28T10:52:59;19.60;;;12.63;;
6376;SDS011;3221;48.858;10.128;2023-01-28T10:55:29;21.30;;;12.87;;
6376;SDS011;3221;48.858;10.128;2023-01-28T10:58:10;22.70;;;13.87;;
6376;SDS011;3221;48.858;10.128;2023-01-28T11:01:05;20.67;;;12.70;;
6376;SDS011;3221;48.858;10.128;2023-01-28T11:03:32;20.17;;;12.67;;
6376;SDS011;3221;48.858;10.128;2023-01-28T11:06:02;22.20;;;13.70;;
6376;SDS011;3221;48.858;10.128;2023-01-28T11:08:29;20.80;;;13.13;;
6376;SDS011;3221;48.858;10.128;2023-01-28T11:10:57;22.23;;;13.33;;
6376;SDS011;3221;48.858;10.128;2023-01-28T11:13:24;21.70;;;13.67;;
6376;SDS011;3221;48.858;10.128;2023-01-28T11:18:31;22.33;;;13.60;;
6376;SDS011;3221;48.858;10.128;2023-01-28T11:21:27;21.53;;;13.03;;
6376;SDS011;3221;48.858;10.128;2023-01-28T11:24:15;19.53;;;12.53;;
6376;SDS011;3221;48.858;10.128;2023-01-28T11:26:48;20.27;;;12.33;;
6376;SDS011;3221;48.858;10.128;2023-01-28T11:29:21;20.43;;;12.93;;
6376;SDS011;3221;48.858;10.128;2023-01-28T11:32:00;20.43;;;12.37;;
6376;SDS011;3221;48.858;10.128;2023-01-28T11:34:29;20.70;;;13.43;;
6376;SDS011;3221;48.858;10.128;2023-01-28T11:37:03;20.83;;;12.83;;
6376;SDS011;3221;48.858;10.128;2023-01-28T11:39:38;22.57;;;13.27;;
6376;SDS011;3221;48.858;10.128;2023-01-28T11:42:23;22.07;;;13.57;;
6376;SDS011;3221;48.858;10.128;2023-01-28T11:44:50;24.07;;;14.17;;
6376;SDS011;3221;48.858;10.128;2023-01-28T11:50:05;22.40;;;13.43;;
6376;SDS011;3221;48.858;10.128;2023-01-28T11:58:50;25.43;;;14.40;;
6376;SDS011;3221;48.858;10.128;2023-01-28T12:01:45;25.97;;;15.20;;
6376;SDS011;3221;48.858;10.128;2023-01-28T12:17:52;22.23;;;13.77;;
6376;SDS011;3221;48.858;10.128;2023-01-28T12:20:48;25.20;;;14.70;;
6376;SDS011;3221;48.858;10.128;2023-01-28T12:23:45;22.53;;;13.13;;
6376;SDS011;3221;48.858;10.128;2023-01-28T12:29:01;24.47;;;13.47;;
6376;SDS011;3221;48.858;10.128;2023-01-28T12:32:01;23.53;;;13.03;;
6376;SDS011;3221;48.858;10.128;2023-01-28T12:38:08;22.47;;;12.77;;
6376;SDS011;3221;48.858;10.128;2023-01-28T12:40:44;20.03;;;12.23;;
6376;SDS011;3221;48.858;10.128;2023-01-28T12:43:37;19.37;;;12.47;;
6376;SDS011;3221;48.858;10.128;2023-01-28T12:46:23;21.97;;;12.67;;
6376;SDS011;3221;48.858;10.128;2023-01-28T12:49:13;21.83;;;12.87;;
6376;SDS011;3221;48.858;10.128;2023-01-28T12:51:50;20.50;;;12.47;;
6376;SDS011;3221;48.858;10.128;2023-01-28T12:54:24;20.47;;;12.40;;
6376;SDS011;3221;48.858;10.128;2023-01-28T12:56:53;18.07;;;11.30;;
6376;SDS011;3221;48.858;10.128;2023-01-28T12:59:22;17.47;;;10.83;;
6376;SDS011;3221;48.858;10.128;2023-01-28T13:02:11;16.70;;;10.10;;
6376;SDS011;3221;48.858;10.128;2023-01-28T13:07:31;17.67;;;10.97;;
6376;SDS011;3221;48.858;10.128;2023-01-28T13:10:18;18.17;;;10.70;;
6376;SDS011;3221;48.858;10.128;2023-01-28T13:12:54;51.50;;;13.70;;
6376;SDS011;3221;48.858;10.128;2023-01-28T13:15:22;17.43;;;10.03;;
6376;SDS011;3221;48.858;10.128;2023-01-28T13:18:27;20.60;;;10.50;;
6376;SDS011;3221;48.858;10.128;2023-01-28T13:20:54;14.63;;;9.53;;
6376;SDS011;3221;48.858;10.128;2023-01-28T13:28:45;18.17;;;11.57;;
6376;SDS011;3221;48.858;10.128;2023-01-28T13:31:14;17.83;;;10.77;;
6376;SDS011;3221;48.858;10.128;2023-01-28T13:33:47;14.93;;;10.03;;
6376;SDS011;3221;48.858;10.128;2023-01-28T13:36:28;20.40;;;10.03;;
6376;SDS011;3221;48.858;10.128;2023-01-28T13:39:06;15.90;;;9.47;;
6376;SDS011;3221;48.858;10.128;2023-01-28T13:41:46;15.97;;;10.17;;
6376;SDS011;3221;48.858;10.128;2023-01-28T13:46:51;15.37;;;10.13;;
6376;SDS011;3221;48.858;10.128;2023-01-28T13:49:37;15.80;;;10.47;;
6376;SDS011;3221;48.858;10.128;2023-01-28T13:54:38;15.37;;;10.20;;
6376;SDS011;3221;48.858;10.128;2023-01-28T14:00:53;15.27;;;10.10;;
6376;SDS011;3221;48.858;10.128;2023-01-28T14:05:41;15.07;;;10.50;;
6376;SDS011;3221;48.858;10.128;2023-01-28T14:11:30;15.27;;;9.80;;
6376;SDS011;3221;48.858;10.128;2023-01-28T14:14:25;15.00;;;9.33;;
6376;SDS011;3221;48.858;10.128;2023-01-28T14:19:46;14.20;;;9.83;;
6376;SDS011;3221;48.858;10.128;2023-01-28T14:22:16;15.23;;;10.30;;
6376;SDS011;3221;48.858;10.128;2023-01-28T14:24:45;15.07;;;10.17;;
6376;SDS011;3221;48.858;10.128;2023-01-28T14:27:17;16.80;;;10.30;;
6376;SDS011;3221;48.858;10.128;2023-01-28T14:29:57;15.13;;;10.20;;
6376;SDS011;3221;48.858;10.128;2023-01-28T14:32:32;15.03;;;9.87;;
6376;SDS011;3221;48.858;10.128;2023-01-28T14:35:04;13.67;;;9.93;;
6376;SDS011;3221;48.858;10.128;2023-01-28T14:37:33;16.33;;;9.27;;
6376;SDS011;3221;48.858;10.128;2023-01-28T14:40:07;14.30;;;9.53;;
6376;SDS011;3221;48.858;10.128;2023-01-28T14:42:41;13.77;;;9.87;;
6376;SDS011;3221;48.858;10.128;2023-01-28T14:59:41;15.13;;;9.40;;
6376;SDS011;3221;48.858;10.128;2023-01-28T15:02:14;12.73;;;8.87;;
6376;SDS011;3221;48.858;10.128;2023-01-28T15:04:47;12.27;;;9.00;;
6376;SDS011;3221;48.858;10.128;2023-01-28T15:07:22;12.30;;;8.90;;
6376;SDS011;3221;48.858;10.128;2023-01-28T15:12:29;11.47;;;8.13;;
6376;SDS011;3221;48.858;10.128;2023-01-28T15:15:07;12.77;;;8.50;;
6376;SDS011;3221;48.858;10.128;2023-01-28T15:17:41;9.93;;;7.60;;
6376;SDS011;3221;48.858;10.128;2023-01-28T15:20:08;10.67;;;7.37;;
6376;SDS011;3221;48.858;10.128;2023-01-28T15:22:41;11.63;;;7.80;;
6376;SDS011;3221;48.858;10.128;2023-01-28T15:25:15;10.60;;;8.03;;
6376;SDS011;3221;48.858;10.128;2023-01-28T15:27:46;10.63;;;7.93;;
6376;SDS011;3221;48.858;10.128;2023-01-28T15:30:23;10.07;;;7.80;;
6376;SDS011;3221;48.858;10.128;2023-01-28T15:33:03;9.87;;;7.27;;
6376;SDS011;3221;48.858;10.128;2023-01-28T15:35:36;8.87;;;6.87;;
6376;SDS011;3221;48.858;10.128;2023-01-28T15:38:03;9.97;;;7.27;;
6376;SDS011;3221;48.858;10.128;2023-01-28T15:40:38;9.23;;;6.93;;
6376;SDS011;3221;48.858;10.128;2023-01-28T15:43:14;9.70;;;7.37;;
6376;SDS011;3221;48.858;10.128;2023-01-28T15:45:45;9.37;;;7.03;;
6376;SDS011;3221;48.858;10.128;2023-01-28T15:48:14;9.47;;;6.67;;
6376;SDS011;3221;48.858;10.128;2023-01-28T15:50:42;8.20;;;6.67;;
6376;SDS011;3221;48.858;10.128;2023-01-28T15:53:10;9.17;;;6.83;;
6376;SDS011;3221;48.858;10.128;2023-01-28T15:55:40;9.20;;;7.07;;
6376;SDS011;3221;48.858;10.128;2023-01-28T15:58:20;10.97;;;7.17;;
6376;SDS011;3221;48.858;10.128;2023-01-28T16:03:34;8.80;;;6.73;;
6376;SDS011;3221;48.858;10.128;2023-01-28T16:06:05;7.97;;;6.50;;
6376;SDS011;3221;48.858;10.128;2023-01-28T16:11:29;9.03;;;6.60;;
6376;SDS011;3221;48.858;10.128;2023-01-28T16:14:00;8.63;;;6.30;;
6376;SDS011;3221;48.858;10.128;2023-01-28T16:16:29;8.17;;;6.43;;
6376;SDS011;3221;48.858;10.128;2023-01-28T16:18:58;7.87;;;6.30;;
6376;SDS011;3221;48.858;10.128;2023-01-28T16:21:27;7.90;;;6.27;;
6376;SDS011;3221;48.858;10.128;2023-01-28T16:24:19;8.27;;;6.10;;
6376;SDS011;3221;48.858;10.128;2023-01-28T16:26:57;8.80;;;6.30;;
6376;SDS011;3221;48.858;10.128;2023-01-28T16:29:26;8.63;;;6.27;;
6376;SDS011;3221;48.858;10.128;2023-01-28T16:31:56;7.90;;;6.20;;
6376;SDS011;3221;48.858;10.128;2023-01-28T16:34:25;7.57;;;5.97;;
6376;SDS011;3221;48.858;10.128;2023-01-28T16:36:56;8.70;;;6.00;;
6376;SDS011;3221;48.858;10.128;2023-01-28T16:39:24;6.93;;;5.53;;
6376;SDS011;3221;48.858;10.128;2023-01-28T16:41:51;7.00;;;5.60;;
6376;SDS011;3221;48.858;10.128;2023-01-28T16:44:19;6.30;;;5.40;;
6376;SDS011;3221;48.858;10.128;2023-01-28T16:46:45;6.33;;;5.27;;
6376;SDS011;3221;48.858;10.128;2023-01-28T16:49:12;6.80;;;5.30;;
6376;SDS011;3221;48.858;10.128;2023-01-28T16:51:39;7.13;;;5.83;;
6376;SDS011;3221;48.858;10.128;2023-01-28T16:54:12;7.83;;;6.33;;
6376;SDS011;3221;48.858;10.128;2023-01-28T16:56:41;7.87;;;5.70;;
6376;SDS011;3221;48.858;10.128;2023-01-28T16:59:12;7.93;;;5.60;;
6376;SDS011;3221;48.858;10.128;2023-01-28T17:01:41;8.60;;;6.00;;
6376;SDS011;3221;48.858;10.128;2023-01-28T17:04:09;6.90;;;5.70;;
6376;SDS011;3221;48.858;10.128;2023-01-28T17:06:41;6.97;;;6.00;;
6376;SDS011;3221;48.858;10.128;2023-01-28T17:09:11;8.90;;;6.77;;
6376;SDS011;3221;48.858;10.128;2023-01-28T17:11:39;7.93;;;6.10;;
6376;SDS011;3221;48.858;10.128;2023-01-28T17:14:06;8.33;;;6.37;;
6376;SDS011;3221;48.858;10.128;2023-01-28T17:16:34;7.97;;;6.13;;
6376;SDS011;3221;48.858;10.128;2023-01-28T17:19:01;8.00;;;6.00;;
6376;SDS011;3221;48.858;10.128;2023-01-28T17:21:27;7.97;;;6.13;;
6376;SDS011;3221;48.858;10.128;2023-01-28T17:23:54;6.87;;;5.63;;